Time;durP1;ratioP1;P1;durP2;ratioP2;P2;SDS_P1;SDS_P2;PMS_P1;PMS_P2;Temp;Humidity;BMP_temperature;BMP_pressure;BME280_temperature;BME280_humidity;BME280_pressure;Samples;Min_cycle;Max_cycle;Signal;HPM_P1;HPM_P2
2022/05/18 00:02:25;;;;;;;2.62;2.00;;;;;;;;;;4419818;32;20213;-54
2022/05/18 00:04:50;;;;;;;4.05;2.05;;;;;;;;;;4420219;32;20621;-54
2022/05/18 00:07:16;;;;;;;2.33;1.77;;;;;;;;;;4417092;32;20280;-54
2022/05/18 00:09:42;;;;;;;3.37;2.33;;;;;;;;;;4419872;32;20321;-54
2022/05/18 00:12:08;;;;;;;3.33;1.85;;;;;;;;;;4420040;32;20343;-54
2022/05/18 00:14:34;;;;;;;3.55;1.85;;;;;;;;;;4418025;32;20294;-54
2022/05/18 00:17:03;;;;;;;6.90;2.20;;;;;;;;;;4419675;32;20615;-54
2022/05/18 00:19:29;;;;;;;4.12;2.15;;;;;;;;;;4419715;32;20204;-54
2022/05/18 00:21:55;;;;;;;5.20;2.50;;;;;;;;;;4428671;32;20275;-54
2022/05/18 00:24:21;;;;;;;5.65;2.22;;;;;;;;;;4434775;32;20279;-56
2022/05/18 00:26:46;;;;;;;4.75;2.10;;;;;;;;;;4434826;32;20615;-54
2022/05/18 00:29:12;;;;;;;3.12;1.95;;;;;;;;;;4418811;32;20397;-54
2022/05/18 00:31:37;;;;;;;3.10;2.12;;;;;;;;;;4404643;32;20217;-54
2022/05/18 00:34:03;;;;;;;4.40;2.30;;;;;;;;;;4417495;32;20248;-54
2022/05/18 00:36:28;;;;;;;3.67;2.28;;;;;;;;;;4419523;32;20213;-55
2022/05/18 00:38:54;;;;;;;3.67;2.37;;;;;;;;;;4414753;32;20554;-54
2022/05/18 00:41:20;;;;;;;3.22;2.67;;;;;;;;;;4419507;32;20217;-54
2022/05/18 00:43:49;;;;;;;2.60;2.08;;;;;;;;;;4419395;32;20362;-53
2022/05/18 00:46:15;;;;;;;3.35;2.17;;;;;;;;;;4419409;32;20318;-54
2022/05/18 00:48:42;;;;;;;3.58;1.90;;;;;;;;;;4419847;32;20229;-53
2022/05/18 00:51:22;;;;;;;2.20;1.77;;;;;;;;;;4419196;32;20242;-54
2022/05/18 00:53:53;;;;;;;3.08;2.08;;;;;;;;;;4418826;32;20288;-56
2022/05/18 00:56:23;;;;;;;3.30;1.92;;;;;;;;;;4419121;32;20644;-54
2022/05/18 00:59:08;;;;;;;2.05;1.75;;;;;;;;;;4418937;32;20732;-54
2022/05/18 01:01:34;;;;;;;3.17;2.83;;;;;;;;;;4419554;32;20624;-54
2022/05/18 01:04:02;;;;;;;3.65;1.92;;;;;;;;;;4419305;32;20304;-53
2022/05/18 01:06:37;;;;;;;4.37;2.15;;;;;;;;;;4409732;32;20210;-54
2022/05/18 01:09:04;;;;;;;3.67;1.87;;;;;;;;;;4417673;32;20220;-54
2022/05/18 01:11:33;;;;;;;2.90;1.40;;;;;;;;;;4419236;32;20220;-54
2022/05/18 01:13:59;;;;;;;10.30;1.70;;;;;;;;;;4419362;32;20318;-53
2022/05/18 01:16:26;;;;;;;6.10;2.45;;;;;;;;;;4419284;32;20229;-54
2022/05/18 01:18:53;;;;;;;6.80;2.85;;;;;;;;;;4418986;32;20240;-54
2022/05/18 01:21:19;;;;;;;9.07;6.68;;;;;;;;;;4418946;32;20298;-53
2022/05/18 01:24:11;;;;;;;12.60;9.07;;;;;;;;;;4418902;32;20556;-54
2022/05/18 01:26:44;;;;;;;9.27;8.27;;;;;;;;;;4403830;32;20202;-53
2022/05/18 01:29:10;;;;;;;9.77;5.47;;;;;;;;;;4411216;32;20209;-54
2022/05/18 01:31:48;;;;;;;5.62;4.68;;;;;;;;;;4418999;32;20259;-54
2022/05/18 01:34:16;;;;;;;5.57;2.92;;;;;;;;;;4417592;32;20205;-53
2022/05/18 01:36:41;;;;;;;5.25;2.90;;;;;;;;;;4418619;32;20649;-53
2022/05/18 01:39:12;;;;;;;3.80;2.67;;;;;;;;;;4418621;32;20331;-53
2022/05/18 01:41:46;;;;;;;3.00;2.30;;;;;;;;;;4419406;32;20223;-53
2022/05/18 01:44:11;;;;;;;3.72;2.50;;;;;;;;;;4418644;32;20226;-53
2022/05/18 01:46:37;;;;;;;3.17;2.05;;;;;;;;;;4404985;32;20267;-53
2022/05/18 01:49:02;;;;;;;3.20;2.40;;;;;;;;;;4418822;32;20542;-53
2022/05/18 01:51:43;;;;;;;2.70;2.25;;;;;;;;;;4418126;32;20204;-53
2022/05/18 01:54:10;;;;;;;5.30;2.67;;;;;;;;;;4418721;32;20268;-54
2022/05/18 01:56:35;;;;;;;4.53;3.92;;;;;;;;;;4418567;32;20315;-53
2022/05/18 01:59:01;;;;;;;7.18;3.95;;;;;;;;;;4404278;32;20661;-53
2022/05/18 02:01:26;;;;;;;3.87;3.15;;;;;;;;;;4418426;32;20206;-54
2022/05/18 02:03:53;;;;;;;6.37;3.33;;;;;;;;;;4418626;32;20301;-54
2022/05/18 02:06:18;;;;;;;5.40;3.20;;;;;;;;;;4418228;32;20258;-54
2022/05/18 02:08:44;;;;;;;9.65;3.30;;;;;;;;;;4418397;32;20213;-53
2022/05/18 02:11:19;;;;;;;4.82;2.40;;;;;;;;;;4418419;32;20265;-54
2022/05/18 02:13:45;;;;;;;5.30;2.55;;;;;;;;;;4418253;32;20209;-54
2022/05/18 02:16:11;;;;;;;9.57;2.80;;;;;;;;;;4418313;32;20233;-54
2022/05/18 02:18:37;;;;;;;4.22;2.40;;;;;;;;;;4418613;32;20243;-53
2022/05/18 02:21:08;;;;;;;3.97;2.78;;;;;;;;;;4414123;32;20617;-53
2022/05/18 02:23:38;;;;;;;3.42;2.25;;;;;;;;;;4403393;32;20259;-54
2022/05/18 02:26:07;;;;;;;6.45;3.35;;;;;;;;;;4414353;32;20250;-54
2022/05/18 02:28:33;;;;;;;4.70;3.15;;;;;;;;;;4418601;32;20259;-53
2022/05/18 02:30:59;;;;;;;5.32;3.10;;;;;;;;;;4418373;32;20238;-53
2022/05/18 02:33:24;;;;;;;4.78;2.50;;;;;;;;;;4418002;32;20209;-53
2022/05/18 02:35:50;;;;;;;5.07;2.53;;;;;;;;;;4418200;32;20201;-53
2022/05/18 02:38:15;;;;;;;2.55;2.30;;;;;;;;;;4417999;32;20285;-54
2022/05/18 02:40:41;;;;;;;4.78;2.28;;;;;;;;;;4418502;32;20499;-53
2022/05/18 02:43:06;;;;;;;4.37;2.62;;;;;;;;;;4418314;32;20306;-53
2022/05/18 02:45:32;;;;;;;2.75;2.03;;;;;;;;;;4418069;32;20243;-53
2022/05/18 02:47:57;;;;;;;2.50;1.85;;;;;;;;;;4417892;32;20290;-53
2022/05/18 02:50:23;;;;;;;8.68;3.22;;;;;;;;;;4418367;32;20227;-52
2022/05/18 02:52:48;;;;;;;4.25;2.50;;;;;;;;;;4418007;32;20228;-53
2022/05/18 02:57:59;;;;;;;4.15;3.45;;;;;;;;;;4417893;32;20248;-53
2022/05/18 03:00:26;;;;;;;9.07;3.25;;;;;;;;;;4418080;32;20293;-53
2022/05/18 03:02:51;;;;;;;3.97;2.97;;;;;;;;;;4419393;32;20251;-54
2022/05/18 03:05:17;;;;;;;2.95;2.62;;;;;;;;;;4419100;32;20202;-53
2022/05/18 03:07:43;;;;;;;8.35;3.50;;;;;;;;;;4411357;32;20213;-53
2022/05/18 03:10:10;;;;;;;2.95;2.28;;;;;;;;;;4422944;32;20600;-53
2022/05/18 03:12:35;;;;;;;3.62;3.03;;;;;;;;;;4435964;32;20300;-53
2022/05/18 03:15:01;;;;;;;4.45;3.08;;;;;;;;;;4426491;32;20303;-53
2022/05/18 03:17:26;;;;;;;3.25;2.58;;;;;;;;;;4415366;32;20652;-53
2022/05/18 03:19:52;;;;;;;3.03;2.55;;;;;;;;;;4405448;32;20264;-53
2022/05/18 03:25:02;;;;;;;4.72;2.75;;;;;;;;;;4420659;32;20216;-53
2022/05/18 03:27:28;;;;;;;7.03;2.75;;;;;;;;;;4420638;32;20280;-53
2022/05/18 03:29:54;;;;;;;3.28;2.95;;;;;;;;;;4420606;32;20268;-52
2022/05/18 03:32:22;;;;;;;4.62;2.95;;;;;;;;;;4420621;32;20239;-53
2022/05/18 03:34:49;;;;;;;15.55;3.12;;;;;;;;;;4420019;32;20225;-53
2022/05/18 03:37:16;;;;;;;5.03;3.35;;;;;;;;;;4420045;32;20688;-53
2022/05/18 03:39:42;;;;;;;9.20;3.17;;;;;;;;;;4417110;32;20677;-54
2022/05/18 03:42:08;;;;;;;10.88;4.22;;;;;;;;;;4420280;32;20469;-55
2022/05/18 03:44:33;;;;;;;8.65;3.90;;;;;;;;;;4413837;32;20272;-54
2022/05/18 03:46:59;;;;;;;4.90;2.75;;;;;;;;;;4420064;32;20246;-53
2022/05/18 03:49:24;;;;;;;5.07;3.58;;;;;;;;;;4419895;32;20205;-53
2022/05/18 03:51:50;;;;;;;7.00;3.60;;;;;;;;;;4421978;32;20201;-53
2022/05/18 03:54:15;;;;;;;11.38;3.17;;;;;;;;;;4435425;32;20357;-53
2022/05/18 03:56:41;;;;;;;5.35;3.08;;;;;;;;;;4432124;32;20208;-53
2022/05/18 03:59:06;;;;;;;3.45;2.15;;;;;;;;;;4405101;32;20578;-53
2022/05/18 04:01:32;;;;;;;6.50;3.25;;;;;;;;;;4404890;32;20841;-53
2022/05/18 04:03:57;;;;;;;5.95;2.72;;;;;;;;;;4398690;32;20278;-53
2022/05/18 04:06:23;;;;;;;6.45;3.20;;;;;;;;;;4419609;32;20212;-53
2022/05/18 04:08:49;;;;;;;4.18;2.58;;;;;;;;;;4422557;32;20622;-54
2022/05/18 04:11:16;;;;;;;4.57;2.60;;;;;;;;;;4419498;32;20686;-53
2022/05/18 04:13:42;;;;;;;3.12;2.33;;;;;;;;;;4418647;32;20261;-53
2022/05/18 04:16:08;;;;;;;3.97;2.60;;;;;;;;;;4419089;32;20273;-53
2022/05/18 04:18:35;;;;;;;3.35;2.55;;;;;;;;;;4408336;32;20355;-52
2022/05/18 04:21:00;;;;;;;9.75;2.97;;;;;;;;;;4404400;32;20248;-52
2022/05/18 04:23:26;;;;;;;7.25;3.47;;;;;;;;;;4404445;32;20364;-53
2022/05/18 04:25:52;;;;;;;4.32;2.83;;;;;;;;;;4412548;32;20655;-53
2022/05/18 04:28:18;;;;;;;3.92;2.42;;;;;;;;;;4419629;32;20240;-53
2022/05/18 04:30:46;;;;;;;5.53;3.22;;;;;;;;;;4419343;32;20201;-53
2022/05/18 04:33:21;;;;;;;3.85;2.62;;;;;;;;;;4419585;32;20308;-53
2022/05/18 04:35:49;;;;;;;5.25;2.50;;;;;;;;;;4419158;32;20193;-53
2022/05/18 04:38:15;;;;;;;8.48;4.35;;;;;;;;;;4419200;32;20220;-54
2022/05/18 04:40:41;;;;;;;5.07;2.70;;;;;;;;;;4418698;32;20295;-54
2022/05/18 04:43:07;;;;;;;3.25;2.53;;;;;;;;;;4418781;32;20269;-53
2022/05/18 04:45:32;;;;;;;7.20;2.72;;;;;;;;;;4419051;32;20247;-53
2022/05/18 04:47:58;;;;;;;4.57;3.08;;;;;;;;;;4418953;32;20233;-52
2022/05/18 04:50:23;;;;;;;7.85;2.83;;;;;;;;;;4418670;32;20236;-52
2022/05/18 04:52:49;;;;;;;3.87;2.90;;;;;;;;;;4417706;32;20217;-52
2022/05/18 04:55:14;;;;;;;6.62;3.90;;;;;;;;;;4403642;32;20628;-53
2022/05/18 04:57:40;;;;;;;9.82;3.65;;;;;;;;;;4403592;32;20221;-52
2022/05/18 05:00:08;;;;;;;6.07;3.12;;;;;;;;;;4404188;32;20233;-54
2022/05/18 05:02:35;;;;;;;3.78;3.20;;;;;;;;;;4413889;32;20498;-53
2022/05/18 05:05:02;;;;;;;5.43;2.90;;;;;;;;;;4433402;32;20197;-53
2022/05/18 05:07:27;;;;;;;9.00;4.15;;;;;;;;;;4418247;32;20259;-53
2022/05/18 05:09:52;;;;;;;8.95;3.70;;;;;;;;;;4418487;32;20257;-53
2022/05/18 05:12:21;;;;;;;9.52;6.25;;;;;;;;;;4418544;32;20553;-52
2022/05/18 05:14:46;;;;;;;9.90;3.60;;;;;;;;;;4418074;32;20241;-53
2022/05/18 05:17:11;;;;;;;5.25;3.80;;;;;;;;;;4418101;32;20247;-53
2022/05/18 05:19:38;;;;;;;6.72;3.33;;;;;;;;;;4418520;32;20198;-53
2022/05/18 05:22:04;;;;;;;3.95;2.95;;;;;;;;;;4417792;32;20617;-53
2022/05/18 05:24:29;;;;;;;4.93;4.30;;;;;;;;;;4418034;32;20272;-55
2022/05/18 05:26:55;;;;;;;6.80;4.22;;;;;;;;;;4415321;32;20298;-53
2022/05/18 05:29:21;;;;;;;6.15;4.55;;;;;;;;;;4417862;32;20272;-55
2022/05/18 05:31:46;;;;;;;5.97;5.22;;;;;;;;;;4417990;32;20610;-54
2022/05/18 05:34:13;;;;;;;3.97;3.55;;;;;;;;;;4416307;32;20221;-53
2022/05/18 05:36:38;;;;;;;7.20;4.35;;;;;;;;;;4417838;32;20259;-53
2022/05/18 05:39:04;;;;;;;5.55;3.75;;;;;;;;;;4414049;32;20256;-53
2022/05/18 05:41:29;;;;;;;6.30;4.03;;;;;;;;;;4417705;32;20210;-53
2022/05/18 05:43:56;;;;;;;5.75;3.83;;;;;;;;;;4417849;32;20304;-53
2022/05/18 05:46:22;;;;;;;7.25;4.28;;;;;;;;;;4417795;32;20237;-52
2022/05/18 05:48:47;;;;;;;11.05;4.43;;;;;;;;;;4417936;32;20333;-53
2022/05/18 05:51:15;;;;;;;5.00;3.75;;;;;;;;;;4403427;32;20210;-53
2022/05/18 05:53:43;;;;;;;5.65;4.25;;;;;;;;;;4402630;32;20659;-53
2022/05/18 05:56:10;;;;;;;8.73;5.18;;;;;;;;;;4402499;32;20198;-53
2022/05/18 05:58:37;;;;;;;10.88;4.65;;;;;;;;;;4406628;32;20772;-54
2022/05/18 06:01:05;;;;;;;4.90;4.30;;;;;;;;;;4403743;32;20229;-54
2022/05/18 06:03:32;;;;;;;6.75;4.72;;;;;;;;;;4416216;32;20232;-55
2022/05/18 06:05:57;;;;;;;5.97;4.55;;;;;;;;;;4408937;32;20213;-55
2022/05/18 06:08:24;;;;;;;4.57;3.97;;;;;;;;;;4400057;32;20251;-54
2022/05/18 06:10:50;;;;;;;6.95;4.97;;;;;;;;;;4409051;32;20214;-54
2022/05/18 06:13:15;;;;;;;36.45;10.40;;;;;;;;;;4413763;32;20767;-54
2022/05/18 06:15:41;;;;;;;67.72;19.65;;;;;;;;;;4415399;32;20213;-55
2022/05/18 06:18:07;;;;;;;35.85;9.98;;;;;;;;;;4414679;32;20689;-54
2022/05/18 06:20:33;;;;;;;19.55;8.77;;;;;;;;;;4414130;32;20217;-55
2022/05/18 06:23:04;;;;;;;7.43;5.47;;;;;;;;;;4415368;32;20301;-54
2022/05/18 06:25:30;;;;;;;6.90;5.12;;;;;;;;;;4415064;32;20575;-54
2022/05/18 06:27:55;;;;;;;7.53;4.50;;;;;;;;;;4416719;32;20344;-54
2022/05/18 06:30:21;;;;;;;12.43;5.45;;;;;;;;;;4417213;32;20197;-54
2022/05/18 06:32:46;;;;;;;12.02;6.10;;;;;;;;;;4417164;32;20257;-54
2022/05/18 06:35:12;;;;;;;6.35;5.43;;;;;;;;;;4417666;32;20201;-54
2022/05/18 06:37:37;;;;;;;8.25;5.82;;;;;;;;;;4415948;32;20221;-54
2022/05/18 06:40:05;;;;;;;16.65;6.85;;;;;;;;;;4419622;32;20317;-54
2022/05/18 06:42:31;;;;;;;8.80;6.05;;;;;;;;;;4420655;32;20217;-54
2022/05/18 06:44:58;;;;;;;6.95;4.18;;;;;;;;;;4420378;32;20325;-54
2022/05/18 06:47:24;;;;;;;6.07;4.50;;;;;;;;;;4406166;32;20660;-54
2022/05/18 06:49:50;;;;;;;9.15;6.45;;;;;;;;;;4405264;32;20255;-55
2022/05/18 06:52:15;;;;;;;5.70;4.43;;;;;;;;;;4405025;32;20664;-54
2022/05/18 06:54:41;;;;;;;11.30;5.10;;;;;;;;;;4408265;32;20279;-55
2022/05/18 06:57:06;;;;;;;9.98;4.97;;;;;;;;;;4434897;32;20264;-55
2022/05/18 06:59:32;;;;;;;6.78;4.40;;;;;;;;;;4422842;32;20736;-54
2022/05/18 07:01:58;;;;;;;8.70;4.45;;;;;;;;;;4420349;32;20459;-55
2022/05/18 07:04:24;;;;;;;6.32;4.97;;;;;;;;;;4420451;32;20284;-55
2022/05/18 07:06:50;;;;;;;7.45;5.15;;;;;;;;;;4416363;32;20217;-55
2022/05/18 07:09:20;;;;;;;7.20;4.07;;;;;;;;;;4420327;32;20413;-56
2022/05/18 07:11:49;;;;;;;6.60;4.30;;;;;;;;;;4420216;32;20268;-56
2022/05/18 07:14:15;;;;;;;9.48;4.65;;;;;;;;;;4419371;32;20213;-56
2022/05/18 07:16:41;;;;;;;8.50;4.93;;;;;;;;;;4420435;32;20189;-56
2022/05/18 07:19:07;;;;;;;14.57;4.60;;;;;;;;;;4420423;32;20682;-56
2022/05/18 07:21:33;;;;;;;7.55;4.37;;;;;;;;;;4420185;32;20189;-56
2022/05/18 07:23:58;;;;;;;6.30;5.62;;;;;;;;;;4420468;32;20233;-56
2022/05/18 07:26:25;;;;;;;10.77;6.68;;;;;;;;;;4420243;32;20210;-57
2022/05/18 07:28:52;;;;;;;8.32;5.68;;;;;;;;;;4420242;32;20245;-57
2022/05/18 07:31:19;;;;;;;13.52;8.00;;;;;;;;;;4420168;32;20676;-57
2022/05/18 07:33:47;;;;;;;13.23;7.90;;;;;;;;;;4419717;32;20259;-56
2022/05/18 07:36:13;;;;;;;13.88;6.97;;;;;;;;;;4419918;32;20519;-55
2022/05/18 07:38:40;;;;;;;11.50;6.97;;;;;;;;;;4416403;32;20553;-57
2022/05/18 07:41:10;;;;;;;18.17;7.55;;;;;;;;;;4419679;32;20704;-57
2022/05/18 07:43:36;;;;;;;14.60;7.65;;;;;;;;;;4406578;32;20326;-57
2022/05/18 07:46:01;;;;;;;12.75;7.95;;;;;;;;;;4404830;32;20749;-58
2022/05/18 07:48:27;;;;;;;9.98;8.52;;;;;;;;;;4404604;32;20269;-57
2022/05/18 07:50:53;;;;;;;12.07;8.15;;;;;;;;;;4404849;32;20198;-58
2022/05/18 07:53:18;;;;;;;8.45;7.28;;;;;;;;;;4405277;32;20621;-57
2022/05/18 07:55:44;;;;;;;11.18;8.00;;;;;;;;;;4414363;32;20341;-58
2022/05/18 07:58:12;;;;;;;12.05;7.68;;;;;;;;;;4416228;32;20222;-58
2022/05/18 08:00:38;;;;;;;10.80;8.68;;;;;;;;;;4404637;32;20198;-57
2022/05/18 08:03:04;;;;;;;10.10;8.15;;;;;;;;;;4412493;32;20270;-57
2022/05/18 08:05:30;;;;;;;10.15;8.73;;;;;;;;;;4415947;32;20692;-57
2022/05/18 08:07:57;;;;;;;12.30;9.80;;;;;;;;;;4404469;32;20307;-56
2022/05/18 08:15:53;;;;;;;8.93;8.02;;;;;;;;;;4419289;32;20660;-55
2022/05/18 08:18:20;;;;;;;9.93;8.88;;;;;;;;;;4419441;32;20221;-56
2022/05/18 08:20:46;;;;;;;12.60;7.57;;;;;;;;;;4419006;32;20409;-57
2022/05/18 08:23:12;;;;;;;9.60;7.20;;;;;;;;;;4419337;32;20237;-56
2022/05/18 08:25:38;;;;;;;13.45;6.72;;;;;;;;;;4419124;32;20273;-57
2022/05/18 08:28:05;;;;;;;8.60;7.10;;;;;;;;;;4405394;32;20534;-56
2022/05/18 08:30:31;;;;;;;10.88;5.47;;;;;;;;;;4418706;32;20630;-56
2022/05/18 08:32:58;;;;;;;7.05;5.85;;;;;;;;;;4418716;32;20557;-56
2022/05/18 08:35:24;;;;;;;10.75;6.43;;;;;;;;;;4418970;32;20193;-56
2022/05/18 08:37:50;;;;;;;6.90;6.00;;;;;;;;;;4414956;32;20271;-57
2022/05/18 08:40:30;;;;;;;7.47;6.37;;;;;;;;;;4404028;32;20696;-57
2022/05/18 08:42:58;;;;;;;12.35;6.72;;;;;;;;;;4403995;32;20288;-57
2022/05/18 08:45:29;;;;;;;8.70;7.28;;;;;;;;;;4390109;32;20557;-56
2022/05/18 08:48:05;;;;;;;10.73;7.85;;;;;;;;;;4403521;32;20385;-56
2022/05/18 08:50:31;;;;;;;10.25;8.30;;;;;;;;;;4389996;32;20275;-56
2022/05/18 08:53:12;;;;;;;12.82;8.23;;;;;;;;;;4419098;32;20225;-57
2022/05/18 08:56:01;;;;;;;12.98;9.20;;;;;;;;;;4419037;32;20185;-56
2022/05/18 08:58:29;;;;;;;11.32;8.50;;;;;;;;;;4418596;32;20228;-56
2022/05/18 09:00:59;;;;;;;16.67;8.98;;;;;;;;;;4417764;32;20257;-56
2022/05/18 09:03:33;;;;;;;14.13;8.50;;;;;;;;;;4418721;32;20298;-55
2022/05/18 09:06:09;;;;;;;11.07;7.50;;;;;;;;;;4412107;32;20279;-56
2022/05/18 09:08:42;;;;;;;12.00;9.23;;;;;;;;;;4403573;32;20442;-56
2022/05/18 09:11:15;;;;;;;10.35;8.90;;;;;;;;;;4421643;32;20208;-57
2022/05/18 09:13:41;;;;;;;12.02;8.32;;;;;;;;;;4429249;32;20253;-56
2022/05/18 09:16:25;;;;;;;12.18;8.55;;;;;;;;;;4418351;32;20280;-57
2022/05/18 09:18:56;;;;;;;11.93;6.82;;;;;;;;;;4418472;32;20217;-57
2022/05/18 09:21:42;;;;;;;9.88;8.30;;;;;;;;;;4418186;32;20562;-56
2022/05/18 09:24:45;;;;;;;9.38;7.87;;;;;;;;;;4418434;32;20321;-56
2022/05/18 09:27:36;;;;;;;13.45;7.90;;;;;;;;;;4418073;32;20573;-56
2022/05/18 09:30:15;;;;;;;8.65;6.70;;;;;;;;;;4418077;32;20230;-56
2022/05/18 09:32:59;;;;;;;7.37;5.90;;;;;;;;;;4418179;32;20217;-55
2022/05/18 09:35:33;;;;;;;7.28;5.90;;;;;;;;;;4408579;32;20290;-56
2022/05/18 09:38:08;;;;;;;6.93;5.80;;;;;;;;;;4404164;32;20296;-56
2022/05/18 09:40:40;;;;;;;8.05;5.93;;;;;;;;;;4418072;32;20192;-56
2022/05/18 09:43:21;;;;;;;7.80;4.75;;;;;;;;;;4418217;32;20551;-55
2022/05/18 09:45:48;;;;;;;3.90;3.35;;;;;;;;;;4417966;32;20201;-56
2022/05/18 09:48:17;;;;;;;5.30;3.05;;;;;;;;;;4418157;32;20265;-56
2022/05/18 09:50:46;;;;;;;3.95;2.87;;;;;;;;;;4404201;32;20710;-56
2022/05/18 09:53:13;;;;;;;2.90;2.60;;;;;;;;;;4404221;32;20256;-57
2022/05/18 09:55:39;;;;;;;3.72;2.78;;;;;;;;;;4409123;32;20518;-57
2022/05/18 09:58:14;;;;;;;9.32;7.20;;;;;;;;;;4402338;32;20251;-57
2022/05/18 10:00:39;;;;;;;15.82;11.52;;;;;;;;;;4402852;32;20281;-55
2022/05/18 10:09:15;;;;;;;10.98;7.55;;;;;;;;;;4418370;32;21178;-57
2022/05/18 10:11:42;;;;;;;14.87;8.48;;;;;;;;;;4431373;32;20582;-55
2022/05/18 10:14:13;;;;;;;5.18;4.55;;;;;;;;;;4417723;32;20225;-58
2022/05/18 10:16:50;;;;;;;6.05;5.45;;;;;;;;;;4389319;32;20218;-57
2022/05/18 10:19:30;;;;;;;7.57;4.12;;;;;;;;;;4418065;32;20268;-57
2022/05/18 10:22:00;;;;;;;5.47;4.05;;;;;;;;;;4417788;32;20276;-55
2022/05/18 10:24:36;;;;;;;9.05;3.28;;;;;;;;;;4418127;32;21514;-58
2022/05/18 10:27:15;;;;;;;4.90;3.30;;;;;;;;;;4418037;32;20223;-58
2022/05/18 10:29:49;;;;;;;4.30;3.15;;;;;;;;;;4417678;32;20197;-58
2022/05/18 10:32:31;;;;;;;3.20;2.47;;;;;;;;;;4417669;32;20289;-57
2022/05/18 10:34:58;;;;;;;5.93;2.62;;;;;;;;;;4417681;32;20190;-57
2022/05/18 10:37:32;;;;;;;6.43;2.78;;;;;;;;;;4417794;32;20300;-57
2022/05/18 10:40:01;;;;;;;3.25;2.22;;;;;;;;;;4417623;32;20213;-57
2022/05/18 10:42:39;;;;;;;2.30;1.90;;;;;;;;;;4417652;32;20221;-57
2022/05/18 10:45:27;;;;;;;3.37;1.80;;;;;;;;;;4417535;32;20366;-57
2022/05/18 10:47:57;;;;;;;7.50;2.12;;;;;;;;;;4418092;32;20232;-58
2022/05/18 10:50:28;;;;;;;3.67;1.90;;;;;;;;;;4417721;32;20201;-57
2022/05/18 10:53:00;;;;;;;3.00;1.80;;;;;;;;;;4403150;32;20213;-58
2022/05/18 10:55:28;;;;;;;4.00;1.90;;;;;;;;;;4402761;32;20298;-58
2022/05/18 10:58:10;;;;;;;3.30;2.15;;;;;;;;;;4404708;32;20209;-57
2022/05/18 11:00:47;;;;;;;2.80;2.15;;;;;;;;;;4417988;32;20318;-58
2022/05/18 11:03:51;;;;;;;4.07;1.75;;;;;;;;;;4417963;32;20623;-56
2022/05/18 11:06:21;;;;;;;5.07;2.20;;;;;;;;;;4409683;32;20557;-57
2022/05/18 11:08:47;;;;;;;2.62;1.40;;;;;;;;;;4402850;32;20731;-57
2022/05/18 11:11:38;;;;;;;2.70;1.75;;;;;;;;;;4420144;32;20213;-57
2022/05/18 11:14:16;;;;;;;5.50;2.17;;;;;;;;;;4425127;32;20233;-56
2022/05/18 11:17:02;;;;;;;2.28;1.83;;;;;;;;;;4418087;32;20387;-56
2022/05/18 11:19:37;;;;;;;4.87;2.80;;;;;;;;;;4417758;32;20212;-56
2022/05/18 11:22:21;;;;;;;2.83;1.60;;;;;;;;;;4417270;32;20576;-57
2022/05/18 11:25:13;;;;;;;2.60;2.25;;;;;;;;;;4420066;32;20542;-56
2022/05/18 11:27:45;;;;;;;2.75;2.42;;;;;;;;;;4420917;32;20625;-57
2022/05/18 11:30:13;;;;;;;7.57;2.37;;;;;;;;;;4406685;32;20240;-56
2022/05/18 11:32:57;;;;;;;3.10;1.83;;;;;;;;;;4405714;32;20218;-56
2022/05/18 11:35:32;;;;;;;3.58;2.45;;;;;;;;;;4405284;32;20220;-56
2022/05/18 11:38:55;;;;;;;2.97;2.40;;;;;;;;;;4406409;32;20235;-57
2022/05/18 11:41:23;;;;;;;2.67;2.08;;;;;;;;;;4386008;32;20338;-58
2022/05/18 11:44:00;;;;;;;6.65;2.72;;;;;;;;;;4420268;32;20633;-58
2022/05/18 11:46:44;;;;;;;6.05;2.42;;;;;;;;;;4420400;32;20292;-56
2022/05/18 11:49:18;;;;;;;2.08;1.87;;;;;;;;;;4420044;32;20294;-58
2022/05/18 11:52:01;;;;;;;4.57;2.42;;;;;;;;;;4419991;32;20271;-56
2022/05/18 11:54:35;;;;;;;2.45;1.80;;;;;;;;;;4420322;32;20190;-58
2022/05/18 11:57:11;;;;;;;3.60;2.70;;;;;;;;;;4419852;32;20222;-57
2022/05/18 12:00:07;;;;;;;2.85;2.60;;;;;;;;;;4406748;32;20629;-57
2022/05/18 12:02:51;;;;;;;5.82;2.80;;;;;;;;;;4404957;32;20558;-57
2022/05/18 12:05:51;;;;;;;3.25;2.78;;;;;;;;;;4406437;32;20206;-57
2022/05/18 12:08:41;;;;;;;4.97;3.15;;;;;;;;;;4420197;32;20236;-57
2022/05/18 12:11:16;;;;;;;7.57;2.58;;;;;;;;;;4428034;32;20201;-56
2022/05/18 12:13:47;;;;;;;4.32;2.53;;;;;;;;;;4434712;32;20254;-56
2022/05/18 12:16:20;;;;;;;4.20;2.85;;;;;;;;;;4419988;32;20606;-56
2022/05/18 12:18:58;;;;;;;3.87;2.42;;;;;;;;;;4420089;32;20288;-56
2022/05/18 12:21:36;;;;;;;3.25;2.35;;;;;;;;;;4419920;32;20240;-57
2022/05/18 12:24:05;;;;;;;9.90;2.60;;;;;;;;;;4420028;32;20250;-56
2022/05/18 12:26:34;;;;;;;3.72;2.30;;;;;;;;;;4419784;32;20209;-56
2022/05/18 12:29:01;;;;;;;2.97;1.92;;;;;;;;;;4419889;32;20247;-56
2022/05/18 12:31:27;;;;;;;2.72;1.60;;;;;;;;;;4419425;32;20328;-57
2022/05/18 12:34:04;;;;;;;5.90;2.60;;;;;;;;;;4420026;32;20225;-57
2022/05/18 12:36:40;;;;;;;4.37;2.45;;;;;;;;;;4418926;32;20296;-56
2022/05/18 12:39:09;;;;;;;3.75;2.15;;;;;;;;;;4419231;32;20751;-57
2022/05/18 12:41:38;;;;;;;2.17;1.90;;;;;;;;;;4419343;32;20887;-56
2022/05/18 12:44:08;;;;;;;14.50;2.72;;;;;;;;;;4419031;32;20578;-55
2022/05/18 12:46:42;;;;;;;13.15;1.85;;;;;;;;;;4419505;32;20212;-56
2022/05/18 12:49:16;;;;;;;5.30;1.70;;;;;;;;;;4419524;32;20264;-56
2022/05/18 12:51:55;;;;;;;4.30;2.30;;;;;;;;;;4419839;32;20189;-56
2022/05/18 12:54:29;;;;;;;4.35;1.92;;;;;;;;;;4419444;32;20237;-56
2022/05/18 12:57:07;;;;;;;2.28;1.92;;;;;;;;;;4419196;32;20220;-57
2022/05/18 13:00:03;;;;;;;5.90;1.98;;;;;;;;;;4406418;32;20755;-56
2022/05/18 13:02:38;;;;;;;2.65;1.50;;;;;;;;;;4403899;32;20286;-57
2022/05/18 13:05:23;;;;;;;4.43;1.98;;;;;;;;;;4403690;32;20196;-57
2022/05/18 13:07:49;;;;;;;2.67;1.80;;;;;;;;;;4404074;32;20219;-57
2022/05/18 13:10:17;;;;;;;2.62;1.90;;;;;;;;;;4408815;32;20645;-57
2022/05/18 13:13:01;;;;;;;7.40;1.58;;;;;;;;;;4405254;32;20237;-57
2022/05/18 13:15:39;;;;;;;2.45;1.83;;;;;;;;;;4404068;32;20272;-56
2022/05/18 13:18:17;;;;;;;3.00;1.52;;;;;;;;;;4404157;32;20217;-55
2022/05/18 13:20:59;;;;;;;2.25;1.37;;;;;;;;;;4403398;32;20618;-57
2022/05/18 13:23:54;;;;;;;12.93;1.75;;;;;;;;;;4404007;32;20217;-56
2022/05/18 13:26:29;;;;;;;5.20;1.87;;;;;;;;;;4403839;32;20252;-57
2022/05/18 13:29:00;;;;;;;4.30;1.40;;;;;;;;;;4403815;32;20279;-56
2022/05/18 13:31:26;;;;;;;2.22;1.60;;;;;;;;;;4403831;32;20351;-57
2022/05/18 13:34:22;;;;;;;2.85;1.30;;;;;;;;;;4417225;32;20545;-56
2022/05/18 13:36:54;;;;;;;7.25;1.55;;;;;;;;;;4386868;32;20371;-57
2022/05/18 13:39:24;;;;;;;3.65;2.05;;;;;;;;;;4418403;32;20300;-57
2022/05/18 13:41:50;;;;;;;5.43;1.55;;;;;;;;;;4417982;32;20254;-56
2022/05/18 13:44:16;;;;;;;4.50;1.90;;;;;;;;;;4418750;32;20821;-57
2022/05/18 13:46:41;;;;;;;1.52;1.00;;;;;;;;;;4416832;32;20238;-57
2022/05/18 13:49:13;;;;;;;4.18;1.75;;;;;;;;;;4416753;32;20225;-56
2022/05/18 13:51:43;;;;;;;4.65;1.83;;;;;;;;;;4416486;32;20209;-56
2022/05/18 13:54:13;;;;;;;3.50;1.80;;;;;;;;;;4418475;32;20311;-57
2022/05/18 13:56:47;;;;;;;11.50;1.77;;;;;;;;;;4418898;32;20189;-56
2022/05/18 13:59:23;;;;;;;2.85;1.30;;;;;;;;;;4407375;32;20231;-56
2022/05/18 14:01:52;;;;;;;4.82;1.10;;;;;;;;;;4404642;32;20610;-57
2022/05/18 14:04:35;;;;;;;11.55;1.55;;;;;;;;;;4417609;32;20579;-57
2022/05/18 14:07:01;;;;;;;6.18;1.70;;;;;;;;;;4417776;32;20247;-57
2022/05/18 14:09:27;;;;;;;3.80;2.00;;;;;;;;;;4418321;32;20412;-57
2022/05/18 14:11:57;;;;;;;1.55;1.00;;;;;;;;;;4418363;32;20206;-56
2022/05/18 14:14:27;;;;;;;3.00;0.98;;;;;;;;;;4404219;32;20221;-57
2022/05/18 14:17:01;;;;;;;2.12;0.70;;;;;;;;;;4404471;32;20612;-56
2022/05/18 14:19:33;;;;;;;1.95;0.77;;;;;;;;;;4418445;32;20200;-57
2022/05/18 14:22:00;;;;;;;3.70;1.42;;;;;;;;;;4418375;32;20236;-57
2022/05/18 14:24:32;;;;;;;4.10;1.48;;;;;;;;;;4418506;32;20781;-57
2022/05/18 14:27:14;;;;;;;1.90;1.20;;;;;;;;;;4418663;32;20231;-56
2022/05/18 14:29:50;;;;;;;5.45;1.62;;;;;;;;;;4424024;32;20621;-55
2022/05/18 14:32:24;;;;;;;2.40;1.20;;;;;;;;;;4420976;32;20213;-55
2022/05/18 14:34:57;;;;;;;5.85;1.20;;;;;;;;;;4418632;32;20230;-56
2022/05/18 14:37:30;;;;;;;6.12;1.23;;;;;;;;;;4412420;32;20309;-55
2022/05/18 14:40:02;;;;;;;2.40;1.20;;;;;;;;;;4417732;32;20311;-57
2022/05/18 14:42:30;;;;;;;2.55;0.85;;;;;;;;;;4417692;32;20429;-58
2022/05/18 14:45:04;;;;;;;3.75;1.02;;;;;;;;;;4417325;32;20295;-56
2022/05/18 14:47:45;;;;;;;10.18;1.40;;;;;;;;;;4418301;32;20277;-56
2022/05/18 14:50:16;;;;;;;4.90;1.00;;;;;;;;;;4417726;32;20197;-57
2022/05/18 14:52:55;;;;;;;2.10;1.20;;;;;;;;;;4418333;32;20228;-57
2022/05/18 14:55:41;;;;;;;2.37;1.00;;;;;;;;;;4411173;32;20194;-56
2022/05/18 14:58:11;;;;;;;5.25;1.20;;;;;;;;;;4405400;32;20259;-56
2022/05/18 15:00:40;;;;;;;1.65;1.30;;;;;;;;;;4421216;32;20205;-56
2022/05/18 15:03:10;;;;;;;3.90;1.08;;;;;;;;;;4420687;32;20312;-56
2022/05/18 15:05:39;;;;;;;3.25;1.55;;;;;;;;;;4418108;32;20241;-56
2022/05/18 15:08:12;;;;;;;3.12;1.37;;;;;;;;;;4420542;32;20278;-56
2022/05/18 15:10:53;;;;;;;1.60;1.20;;;;;;;;;;4417081;32;20259;-56
2022/05/18 15:13:32;;;;;;;12.40;1.70;;;;;;;;;;4415777;32;20603;-56
2022/05/18 15:15:57;;;;;;;11.70;1.48;;;;;;;;;;4421415;32;20597;-55
2022/05/18 15:18:28;;;;;;;3.10;1.37;;;;;;;;;;4420616;32;20248;-55